Latest Weather Observations for Mortlake

IDV60801

Issued at 10:42 am EST Monday 19 April 2021 (issued every 10 minutes, with the page automatically refreshed every 10 minutes)

About weather observations | Map of weather stations | Latest weather observations for VIC | Other Formats
Station Details ID: 090176 Name: MORTLAKE RACECOURSE Lat: -38.07 Lon: 142.77 Height: 130.0 m
Data from the previous 72 hours. | See also: Recent months at Mortlake
Date/Time
EST
Temp
°C
App
Temp
°C
Dew
Point
°C
Rel
Hum
%
Delta-T
°C
Wind Press
QNH
hPa
Press
MSL
hPa
Rain since
9am
mm
Dir  Spd
km/h
Gust
km/h
Spd
kts
Gust
kts
19/10:30am 16.2 11.6 10.9 71 2.8 NW 26 37 14 20 1016.5 1016.4 0.2
19/10:00am 15.6 11.7 12.2 80 1.9 NW 24 30 13 16 1016.9 1016.8 0.2
19/09:30am 14.7 12.0 12.9 89 1.0 NNW 19 24 10 13 1017.1 1017.0 0.0
19/09:00am 13.5 11.2 13.0 97 0.3 NNW 17 22 9 12 1017.4 1017.3 0.2
19/08:30am 12.4 10.3 12.4 100 0.0 NNW 15 19 8 10 1017.5 1017.4 0.2
19/08:00am 11.1 9.4 11.1 100 0.0 NW 11 13 6 7 1017.4 1017.3 0.2
19/07:30am 10.7 8.9 10.7 100 0.0 NNW 11 17 6 9 1017.0 1016.9 0.2
19/07:00am 10.1 7.7 10.1 100 0.0 NNW 13 17 7 9 1017.1 1017.0 0.2
19/06:30am 9.6 7.5 9.6 100 0.0 NNW 11 15 6 8 1017.1 1017.0 0.2
19/06:00am 8.1 5.6 8.1 100 0.0 NNW 11 13 6 7 1017.3 1017.2 0.2
19/05:30am 8.5 6.1 8.5 100 0.0 NNW 11 15 6 8 1017.4 1017.3 0.2
19/05:00am 8.4 5.9 8.4 100 0.0 NNW 11 13 6 7 1017.4 1017.3 0.2
19/04:30am 8.7 6.3 8.7 100 0.0 NNW 11 13 6 7 1017.5 1017.4 0.2
19/04:00am 9.0 6.7 9.0 100 0.0 NW 11 15 6 8 1017.6 1017.5 0.2
19/03:30am 9.0 6.7 9.0 100 0.0 NW 11 13 6 7 1017.6 1017.5 0.2
19/03:00am 8.4 6.3 8.4 100 0.0 NNW 9 11 5 6 1017.9 1017.8 0.2
19/02:30am 10.2 8.6 10.2 100 0.0 NNW 9 11 5 6 1018.3 1018.2 0.2
19/02:00am 10.3 8.7 10.3 100 0.0 NNW 9 11 5 6 1018.7 1018.6 0.2
19/01:30am 10.8 9.7 10.8 100 0.0 NW 7 9 4 5 1019.2 1019.2 0.2
19/01:00am 10.2 8.6 10.2 100 0.0 NNW 9 15 5 8 1019.1 1019.1 0.2
19/12:30am 8.9 6.6 8.9 100 0.0 NW 11 13 6 7 1019.2 1019.2 0.2
19/12:00am 8.9 6.6 8.9 100 0.0 W 11 13 6 7 1019.4 1019.4 0.2
 
Date/Time
EST
Temp
°C
App
Temp
°C
Dew
Point
°C
Rel
Hum
%
Delta-T
°C
Wind Press
QNH
hPa
Press
MSL
hPa
Rain since
9am
mm
Dir  Spd
km/h
Gust
km/h
Spd
kts
Gust
kts
18/11:30pm 8.8 7.2 8.8 100 0.0 W 7 9 4 5 1019.6 1019.6 0.2
18/11:00pm 9.4 7.6 9.4 100 0.0 W 9 11 5 6 1019.8 1019.8 0.2
18/10:30pm 9.1 7.2 9.1 100 0.0 W 9 9 5 5 1020.2 1020.2 0.2
18/10:00pm 10.8 9.7 10.8 100 0.0 W 7 9 4 5 1020.3 1020.3 0.2
18/09:30pm 12.0 11.5 12.0 100 0.0 W 6 7 3 4 1020.5 1020.5 0.2
18/09:00pm 12.1 11.6 12.1 100 0.0 W 6 7 3 4 1020.4 1020.4 0.2
18/08:30pm 10.7 10.2 10.7 100 0.0 WSW 4 4 2 2 1020.5 1020.5 0.2
18/08:00pm 10.6 10.3 10.0 96 0.3 WSW 2 2 1 1 1020.7 1020.7 0.2
18/07:30pm 11.7 11.5 10.4 92 0.7 WSW 2 4 1 2 1020.9 1020.9 0.2
18/07:00pm 12.4 11.5 10.5 88 1.0 WSW 6 6 3 3 1020.7 1020.7 0.2
18/06:30pm 13.4 12.9 10.9 85 1.3 WSW 4 6 2 3 1020.5 1020.5 0.2
18/06:00pm 14.6 13.3 11.2 80 1.8 SW 9 13 5 7 1020.5 1020.5 0.2
18/05:30pm 15.1 13.6 11.9 81 1.7 SW 11 15 6 8 1020.4 1020.4 0.2
18/05:00pm 15.5 15.2 13.3 87 1.2 WSW 7 11 4 6 1020.3 1020.3 0.2
18/04:30pm 15.7 15.6 13.9 89 1.0 WSW 7 13 4 7 1020.4 1020.4 0.2
18/04:00pm 15.7 15.2 13.9 89 1.0 W 9 15 5 8 1020.5 1020.5 0.2
18/03:30pm 15.3 14.7 14.7 96 0.3 WNW 11 15 6 8 1020.6 1020.6 0.2
18/03:00pm 15.1 14.7 15.1 100 0.0 W 11 17 6 9 1020.8 1020.8 0.2
18/02:30pm 14.1 11.8 14.1 100 0.0 WSW 19 33 10 18 1020.8 1020.8 0.2
18/02:00pm 14.4 12.2 13.4 94 0.6 WSW 17 28 9 15 1021.0 1021.0 0.2
18/01:30pm 14.8 14.3 14.8 100 0.0 W 11 19 6 10 1021.3 1021.3 0.0
18/01:00pm 15.2 14.0 14.1 93 0.6 SW 13 17 7 9 1021.7 1021.7 0.0
18/12:30pm 16.0 13.2 12.6 80 1.9 W 19 26 10 14 1022.1 1022.0 0.0
18/12:00pm 15.4 12.9 12.3 82 1.7 W 17 24 9 13 1022.5 1022.4 0.0
18/11:30am 15.5 12.7 13.2 86 1.3 W 20 30 11 16 1022.6 1022.5 0.0
18/11:00am 14.3 13.2 14.3 100 0.0 WNW 13 20 7 11 1022.9 1022.8 0.0
18/10:30am 13.4 11.6 13.4 100 0.0 WNW 15 20 8 11 1023.3 1023.2 0.0
18/10:00am 13.3 10.7 13.3 100 0.0 WNW 19 24 10 13 1023.6 1023.5 0.0
18/09:30am 12.9 10.2 12.9 100 0.0 WNW 19 24 10 13 1023.6 1023.5 0.0
18/09:00am 12.9 10.6 12.9 100 0.0 WNW 17 22 9 12 1023.7 1023.6 0.0
18/08:30am 12.4 10.3 12.4 100 0.0 WNW 15 20 8 11 1023.7 1023.6 0.0
18/08:00am 12.3 10.9 12.3 100 0.0 NW 11 13 6 7 1023.4 1023.3 0.0
18/07:30am 11.4 10.5 11.4 100 0.0 NW 7 9 4 5 1023.2 1023.1 0.0
18/07:00am 11.1 9.8 11.1 100 0.0 NW 9 13 5 7 1023.1 1023.0 0.0
18/06:30am 11.4 10.1 11.4 100 0.0 NW 9 13 5 7 1023.2 1023.1 0.0
18/06:00am 11.5 10.3 11.5 100 0.0 NW 9 13 5 7 1023.3 1023.2 0.0
18/05:30am 11.6 10.0 11.6 100 0.0 WNW 11 17 6 9 1023.3 1023.2 0.0
18/05:00am 11.6 10.0 11.6 100 0.0 NW 11 13 6 7 1023.1 1023.0 0.0
18/04:30am 11.6 10.0 11.6 100 0.0 WNW 11 17 6 9 1023.0 1022.9 0.0
18/04:00am 11.4 9.4 11.4 100 0.0 WNW 13 17 7 9 1022.9 1022.8 0.0
18/03:30am 11.1 10.1 11.1 100 0.0 NW 7 9 4 5 1022.9 1022.8 0.0
18/03:00am 11.4 10.5 11.4 100 0.0 WNW 7 11 4 6 1023.2 1023.1 0.0
18/02:30am 11.3 10.4 11.3 100 0.0 WNW 7 9 4 5 1023.5 1023.4 0.0
18/02:00am 11.2 10.3 11.2 100 0.0 NW 7 9 4 5 1023.7 1023.6 0.0
18/01:30am 11.2 9.9 11.2 100 0.0 WNW 9 13 5 7 1024.1 1024.0 0.0
18/01:00am 11.0 9.6 11.0 100 0.0 WNW 9 11 5 6 1024.2 1024.1 0.0
18/12:30am 10.7 9.8 10.7 100 0.0 WNW 6 7 3 4 1024.4 1024.3 0.0
18/12:00am 11.1 10.3 11.1 100 0.0 WNW 6 7 3 4 1024.5 1024.4 0.0
 
Date/Time
EST
Temp
°C
App
Temp
°C
Dew
Point
°C
Rel
Hum
%
Delta-T
°C
Wind Press
QNH
hPa
Press
MSL
hPa
Rain since
9am
mm
Dir  Spd
km/h
Gust
km/h
Spd
kts
Gust
kts
17/11:30pm 10.7 10.2 10.7 100 0.0 WNW 4 7 2 4 1024.7 1024.6 0.0
17/11:00pm 10.1 9.4 10.1 100 0.0 WNW 4 6 2 3 1024.9 1024.8 0.0
17/10:30pm 8.7 7.3 8.7 100 0.0 WNW 6 9 3 5 1025.1 1025.0 0.0
17/10:00pm 8.4 6.9 8.4 100 0.0 WNW 6 7 3 4 1025.2 1025.1 0.0
17/09:30pm 8.8 7.2 8.8 100 0.0 WNW 7 7 4 4 1025.2 1025.1 0.0
17/09:00pm 9.4 7.7 8.5 94 0.4 W 7 9 4 5 1025.1 1025.0 0.0
17/08:30pm 9.4 7.8 8.6 95 0.4 W 7 11 4 6 1025.1 1025.0 0.0
17/08:00pm 10.8 9.6 9.4 91 0.7 W 6 9 3 5 1025.1 1025.0 0.0
17/07:30pm 12.0 10.8 9.4 84 1.3 W 6 7 3 4 1025.1 1025.0 0.0
17/07:00pm 12.2 11.0 9.4 83 1.4 WSW 6 7 3 4 1024.9 1024.8 0.0
17/06:30pm 13.8 11.7 9.8 77 2.1 SW 11 17 6 9 1024.7 1024.6 0.0
17/06:00pm 14.5 12.8 11.1 80 1.8 WSW 11 17 6 9 1024.6 1024.5 0.0
17/05:30pm 14.8 13.0 11.0 78 2.0 W 11 19 6 10 1024.5 1024.4 0.0
17/05:00pm 14.8 12.9 11.8 82 1.6 W 13 17 7 9 1024.2 1024.1 0.0
17/04:30pm 14.7 13.0 11.3 80 1.8 W 11 19 6 10 1024.3 1024.2 0.0
17/04:00pm 15.3 11.5 9.7 69 2.9 WSW 20 28 11 15 1024.3 1024.2 0.0
17/03:30pm 16.3 13.1 8.5 60 4.0 WSW 15 26 8 14 1024.2 1024.1 0.0
17/03:00pm 16.3 12.9 9.3 63 3.6 WSW 17 24 9 13 1024.3 1024.2 0.0
17/02:30pm 16.1 12.2 8.6 61 3.8 WSW 19 26 10 14 1024.3 1024.2 0.0
17/02:00pm 16.9 13.2 7.8 55 4.6 W 17 22 9 12 1024.3 1024.2 0.0
17/01:30pm 16.7 13.4 7.9 56 4.5 W 15 20 8 11 1024.6 1024.5 0.0
17/01:00pm 16.7 14.1 7.9 56 4.4 WSW 11 19 6 10 1025.0 1024.9 0.0
17/12:30pm 16.8 13.0 7.7 55 4.6 WSW 17 24 9 13 1025.2 1025.1 0.0
17/12:00pm 16.6 14.3 7.5 55 4.6 WSW 9 20 5 11 1025.4 1025.4 0.0
17/11:30am 16.0 13.1 6.4 53 4.7 WSW 11 20 6 11 1025.6 1025.6 0.0
17/11:00am 15.7 12.1 6.7 55 4.4 W 15 22 8 12 1025.7 1025.7 0.0
17/10:30am 15.3 12.2 7.1 58 4.1 W 13 19 7 10 1025.9 1025.9 0.0
17/10:00am 13.9 10.6 6.5 61 3.6 W 13 20 7 11 1026.0 1026.0 0.0
17/09:30am 14.0 11.2 6.8 62 3.5 W 11 19 6 10 1025.9 1025.9 0.0
17/09:00am 12.8 10.3 6.6 66 3.0 WNW 9 13 5 7 1025.9 1025.9 0.2
17/08:30am 11.7 9.7 7.0 73 2.3 WNW 7 9 4 5 1025.9 1025.9 0.2
17/08:00am 11.0 8.5 6.6 74 2.1 NW 9 11 5 6 1025.7 1025.7 0.2
17/07:30am 11.0 8.5 6.4 73 2.2 WNW 9 11 5 6 1025.4 1025.4 0.2
17/07:00am 10.7 8.1 6.1 73 2.1 NW 9 13 5 7 1025.2 1025.1 0.2
17/06:30am 10.7 8.1 6.3 74 2.1 NW 9 13 5 7 1025.2 1025.1 0.2
17/06:00am 10.7 8.4 5.9 72 2.2 WNW 7 9 4 5 1025.4 1025.4 0.2
17/05:30am 10.6 8.6 6.4 75 2.0 WNW 6 7 3 4 1025.2 1025.1 0.2
17/05:00am 10.5 8.5 6.1 74 2.0 NW 6 9 3 5 1025.0 1024.9 0.2
17/04:30am 10.6 8.6 6.2 74 2.1 NW 6 7 3 4 1024.9 1024.8 0.2
17/04:00am 10.8 8.2 6.0 72 2.2 WNW 9 13 5 7 1024.9 1024.8 0.2
17/03:30am 10.4 8.2 6.2 75 2.0 NW 7 9 4 5 1024.9 1024.8 0.2
17/03:00am 10.3 8.4 6.5 77 1.8 WNW 6 7 3 4 1025.0 1024.9 0.2
17/02:30am 10.4 8.2 6.0 74 2.1 WNW 7 9 4 5 1025.0 1024.9 0.2
17/02:00am 10.5 9.5 5.7 72 2.2 CALM 0 0 0 0 1025.2 1025.1 0.2
17/01:30am 10.3 8.5 5.5 72 2.2 WNW 4 6 2 3 1025.3 1025.2 0.2
17/01:00am 10.6 8.8 5.4 70 2.4 WNW 4 7 2 4 1025.3 1025.2 0.2
17/12:30am 10.5 8.3 5.5 71 2.3 WNW 6 7 3 4 1025.5 1025.5 0.2
17/12:00am 10.5 8.3 5.3 70 2.4 WNW 6 7 3 4 1025.5 1025.5 0.2
 
Date/Time
EST
Temp
°C
App
Temp
°C
Dew
Point
°C
Rel
Hum
%
Delta-T
°C
Wind Press
QNH
hPa
Press
MSL
hPa
Rain since
9am
mm
Dir  Spd
km/h
Gust
km/h
Spd
kts
Gust
kts
16/11:30pm 11.2 8.9 4.7 64 3.0 W 6 9 3 5 1025.6 1025.6 0.2
16/11:00pm 10.7 8.4 5.0 68 2.6 W 6 7 3 4 1025.7 1025.7 0.2
16/10:30pm 10.8 8.9 4.7 66 2.8 W 4 6 2 3 1025.9 1025.9 0.2
16/10:00pm 11.1 8.6 4.8 65 2.9 W 7 11 4 6 1025.9 1025.9 0.2
16/09:30pm 11.1 8.6 5.0 66 2.8 WSW 7 9 4 5 1025.8 1025.8 0.2
16/09:00pm 11.6 9.3 5.7 67 2.7 WSW 7 13 4 7 1025.7 1025.7 0.2
16/08:30pm 11.7 9.6 5.8 67 2.8 WSW 6 11 3 6 1025.7 1025.7 0.2
16/08:00pm 11.3 9.2 5.8 69 2.6 SW 6 7 3 4 1025.8 1025.8 0.2
16/07:30pm 11.5 9.4 5.6 67 2.8 SW 6 9 3 5 1025.7 1025.7 0.2
16/07:00pm 11.7 9.5 5.1 64 3.0 WSW 6 7 3 4 1025.5 1025.5 0.2
16/06:30pm 11.7 9.2 4.9 63 3.1 SW 7 9 4 5 1025.3 1025.2 0.2
16/06:00pm 12.3 8.6 4.3 58 3.6 SW 13 19 7 10 1024.9 1024.8 0.2
16/05:30pm 12.9 10.2 5.8 62 3.4 SW 9 13 5 7 1024.7 1024.6 0.2
16/05:00pm 13.2 10.1 5.6 60 3.6 SW 11 15 6 8 1024.7 1024.6 0.2
16/04:30pm 13.3 9.5 5.7 60 3.6 SW 15 20 8 11 1024.7 1024.6 0.2
16/04:00pm 13.9 10.3 5.0 55 4.2 SW 13 20 7 11 1024.4 1024.3 0.2
16/03:30pm 13.9 10.5 5.8 58 3.9 SW 13 20 7 11 1024.5 1024.4 0.2
16/03:00pm 14.0 11.0 6.1 59 3.8 SW 11 17 6 9 1024.3 1024.2 0.2
16/02:30pm 13.9 11.4 6.5 61 3.6 SW 9 15 5 8 1024.2 1024.1 0.2
16/02:00pm 13.7 10.4 6.3 61 3.5 SW 13 20 7 11 1024.3 1024.2 0.2
16/01:30pm 13.9 11.1 7.0 63 3.4 WSW 11 17 6 9 1024.6 1024.5 0.2
16/01:00pm 13.8 11.2 5.9 59 3.8 WSW 9 15 5 8 1024.8 1024.7 0.2
16/12:30pm 13.7 11.3 5.3 57 4.0 SSW 7 11 4 6 1025.1 1025.0 0.2
16/12:00pm 13.5 11.0 4.9 56 4.0 WSW 7 13 4 7 1025.3 1025.2 0.0
16/11:30am 13.5 10.4 5.7 59 3.7 SSW 11 17 6 9 1025.4 1025.4 0.0
16/11:00am 13.3 10.6 5.7 60 3.6 SSW 9 13 5 7 1025.4 1025.4 0.0

Other formats

Comma delimited format used in spreadsheet applications
http://www.bom.gov.au/fwo/IDV60801/IDV60801.94840.axf

JavaScript Object Notation format (JSON) in row-major order
http://www.bom.gov.au/fwo/IDV60801/IDV60801.94840.json

Data quality

Most of these data are generated automatically and are frequently updated. Quality checks on data are not normally performed. It is possible for incorrect values to appear. Refer to information at About Latest Weather Observations and please check the disclaimer before using these data.